Time;durP1;ratioP1;P1;durP2;ratioP2;P2;SDS_P1;SDS_P2;PMS_P1;PMS_P2;Temp;Humidity;BMP_temperature;BMP_pressure;BME280_temperature;BME280_humidity;BME280_pressure;Samples;Min_cycle;Max_cycle;Signal;HPM_P1;HPM_P2
2021/12/28 00:02:41;;;;;;;;;;;;;;;-143.39;100.00;63593.47;3;117050406;130478302;-81
2021/12/28 00:07:53;;;;;;;;;1.00;1.00;;;;;-143.39;100.00;63593.47;2214039;28;130554192;-80
2021/12/28 00:10:19;;;;;;;;;1.00;1.00;;;;;-143.39;100.00;63593.47;5033079;28;13469;-80
2021/12/28 00:22:59;;;;;;;;;0.50;0.50;;;;;-143.39;100.00;63593.47;3;130555285;139575347;-81
2021/12/28 00:29:47;;;;;;;;;;;;;;;-143.39;100.00;63593.47;3;117050812;130552807;-81
2021/12/28 00:36:26;;;;;;;;;4.50;0.00;;;;;-143.39;100.00;63593.47;3;117064828;130555187;-81
2021/12/28 00:43:14;;;;;;;;;0.00;0.00;;;;;-143.39;100.00;63593.47;3;130563785;139558139;-81
2021/12/28 00:50:17;;;;;;;;;0.00;0.00;;;;;-143.39;100.00;63593.47;3;130556354;139567755;-81
2021/12/28 00:57:05;;;;;;;;;;;;;;;-143.39;100.00;63593.47;3;117048268;130554607;-81
2021/12/28 01:03:02;;;;;;;;;4.50;0.50;;;;;-143.39;100.00;63593.47;173088;28;127689012;-81
2021/12/28 01:09:42;;;;;;;;;0.00;0.00;;;;;-143.39;100.00;63593.47;3;117059990;130555725;-81
2021/12/28 01:16:31;;;;;;;;;0.00;0.00;;;;;-143.39;100.00;63593.47;3;130562129;139558217;-81
2021/12/28 01:23:32;;;;;;;;;0.00;0.00;;;;;-143.39;100.00;63593.47;3;130554087;139566777;-81
2021/12/28 01:30:22;;;;;;;;;;;;;;;-143.39;100.00;63593.47;3;117049699;130553275;-81
2021/12/28 01:37:01;;;;;;;;;0.00;0.00;;;;;-143.39;100.00;63593.47;3;117061419;130556121;-81
2021/12/28 01:44:00;;;;;;;;;0.00;0.00;;;;;-143.39;100.00;63593.47;3;130562544;139559339;-80
2021/12/28 01:48:55;;;;;;;;;0.00;0.00;;;;;-143.39;100.00;63593.47;3;130553830;137451528;-81
2021/12/28 01:55:44;;;;;;;;;;;;;;;-143.39;100.00;63593.47;3;117048639;130554414;-81
2021/12/28 02:02:23;;;;;;;;;0.00;0.00;;;;;-143.39;100.00;63593.47;3;117064733;130554809;-81
2021/12/28 02:09:04;;;;;;;;;0.00;0.00;;;;;-143.39;100.00;63593.47;3;130564235;139557850;-81
2021/12/28 02:11:29;;;;;;;;;0.00;0.00;;;;;-143.39;100.00;63593.47;1614240;28;98468984;-81
2021/12/28 02:13:55;;;;;;;;;0.00;0.00;;;;;-143.39;100.00;63593.47;5025505;28;8916;-81
2021/12/28 02:16:21;;;;;;;;;0.00;0.00;;;;;-143.39;100.00;63593.47;5019422;28;8814;-81
2021/12/28 02:18:46;;;;;;;;;0.00;0.00;;;;;-143.39;100.00;63593.47;5028779;28;8834;-81
2021/12/28 02:21:14;;;;;;;;;0.00;0.00;;;;;-143.39;100.00;63593.47;5031943;28;8806;-81
2021/12/28 02:23:41;;;;;;;;;0.00;0.00;;;;;-143.39;100.00;63593.47;5035027;28;8818;-81
2021/12/28 02:26:09;;;;;;;;;1.00;0.00;;;;;-143.39;100.00;63593.47;5018362;28;8947;-81
2021/12/28 02:28:35;;;;;;;;;1.00;0.00;;;;;-143.39;100.00;63593.47;5019743;28;8921;-81
2021/12/28 02:31:02;;;;;;;;;0.00;0.00;;;;;-143.39;100.00;63593.47;5017947;28;8884;-82
2021/12/28 02:33:28;;;;;;;;;0.00;0.00;;;;;-143.39;100.00;63593.47;5032161;28;8831;-82
2021/12/28 02:35:57;;;;;;;;;0.00;0.00;;;;;-143.39;100.00;63593.47;5019595;28;8790;-82
2021/12/28 02:38:22;;;;;;;;;0.00;0.00;;;;;-143.39;100.00;63593.47;5034590;28;8822;-81
2021/12/28 02:40:48;;;;;;;;;1.00;0.00;;;;;-143.39;100.00;63593.47;5018245;28;8870;-82
2021/12/28 02:43:15;;;;;;;;;0.00;0.00;;;;;-143.39;100.00;63593.47;5019267;28;8810;-82
2021/12/28 02:45:54;;;;;;;;;0.00;0.00;;;;;-143.39;100.00;63593.47;5035289;28;8791;-82
2021/12/28 02:52:09;;;;;;;;;;;;;;;-143.39;100.00;63593.47;3457769;28;129613129;-82
2021/12/28 02:59:12;;;;;;;;;0.00;0.00;;;;;-143.39;100.00;63593.47;3;130552697;139571878;-82
2021/12/28 03:06:01;;;;;;;;;;;;;;;-143.39;100.00;63593.47;3;117049659;130553677;-82
2021/12/28 03:12:40;;;;;;;;;0.00;0.00;;;;;-143.39;100.00;63593.47;3;117064051;130553820;-82
2021/12/28 03:19:28;;;;;;;;;0.00;0.00;;;;;-143.39;100.00;63593.47;3;130562431;139538605;-83
2021/12/28 03:26:30;;;;;;;;;0.00;0.00;;;;;-143.39;100.00;63593.47;3;130555017;139566436;-82
2021/12/28 03:33:19;;;;;;;;;;;;;;;-143.39;100.00;63593.47;3;117046338;130552688;-83
2021/12/28 03:39:59;;;;;;;;;0.00;0.00;;;;;-143.39;100.00;63593.47;3;117063071;130556321;-83
2021/12/28 03:42:24;;;;;;;;;0.00;0.00;;;;;-143.39;100.00;63593.47;1840309;28;91550241;-83
2021/12/28 03:44:51;;;;;;;;;1.25;1.00;;;;;-143.39;100.00;63593.47;4996376;28;28447;-83
2021/12/28 03:47:16;;;;;;;;;0.00;0.00;;;;;-143.39;100.00;63593.47;5012844;28;29010;-83
2021/12/28 03:49:41;;;;;;;;;0.00;0.00;;;;;-143.39;100.00;63593.47;4997699;28;28679;-83
2021/12/28 03:52:07;;;;;;;;;0.00;0.00;;;;;-143.39;100.00;63593.47;5009055;28;31714;-82
2021/12/28 03:54:34;;;;;;;;;0.00;0.00;;;;;-143.39;100.00;63593.47;5002714;28;28275;-83
2021/12/28 03:57:01;;;;;;;;;1.00;0.00;;;;;-143.39;100.00;63593.47;5012208;28;28559;-83
2021/12/28 04:03:18;;;;;;;;;;;;;;;-143.39;100.00;63593.47;173056;28;139557355;-82
2021/12/28 04:10:09;;;;;;;;;0.00;0.00;;;;;-143.39;100.00;63593.47;3;117052813;130456451;-82
2021/12/28 04:16:49;;;;;;;;;0.00;0.00;;;;;-143.39;100.00;63593.47;3;117064337;130553503;-82
2021/12/28 04:23:37;;;;;;;;;0.00;0.00;;;;;-143.39;100.00;63593.47;3;130565391;139556682;-81
2021/12/28 04:30:39;;;;;;;;;0.00;0.00;;;;;-143.39;100.00;63593.47;3;130555517;139566046;-82
2021/12/28 04:37:27;;;;;;;;;;;;;;;-143.39;100.00;63593.47;3;117049872;130556499;-82
2021/12/28 04:44:06;;;;;;;;;4.50;0.50;;;;;-143.39;100.00;63593.47;3;117062643;130555949;-82
2021/12/28 04:50:54;;;;;;;;;0.00;0.00;;;;;-143.39;100.00;63593.47;3;130564248;139555570;-81
2021/12/28 04:57:56;;;;;;;;;0.00;0.00;;;;;-143.39;100.00;63593.47;3;130554088;139567154;-82
2021/12/28 05:04:44;;;;;;;;;;;;;;;-143.39;100.00;63593.47;3;117051103;130554999;-82
2021/12/28 05:11:23;;;;;;;;;0.00;0.00;;;;;-143.39;100.00;63593.47;3;117062977;130554862;-83
2021/12/28 05:18:13;;;;;;;;;0.00;0.00;;;;;-143.39;100.00;63593.47;3;130564041;139557673;-84
2021/12/28 05:25:14;;;;;;;;;0.00;0.00;;;;;-143.39;100.00;63593.47;3;130434804;139567018;-84
2021/12/28 05:32:03;;;;;;;;;;;;;;;-143.39;100.00;63593.47;3;117005211;130554998;-85
2021/12/28 05:38:41;;;;;;;;;0.00;0.00;;;;;-143.39;100.00;63593.47;3;117027093;130555349;-85
2021/12/28 05:41:52;;;;;;;;;0.00;0.00;;;;;-143.39;100.00;63593.47;3;50947251;138589630;-85
2021/12/28 05:44:18;;;;;;;;;0.00;0.00;;;;;-143.39;100.00;63593.47;5029728;28;32480;-85
2021/12/28 05:46:45;;;;;;;;;0.25;0.00;;;;;-143.39;100.00;63593.47;5020610;28;43142;-85
2021/12/28 05:49:12;;;;;;;;;2.75;0.00;;;;;-143.39;100.00;63593.47;5008977;28;32199;-85
2021/12/28 05:51:38;;;;;;;;;1.25;0.00;;;;;-143.39;100.00;63593.47;4995849;28;28678;-86
2021/12/28 05:54:04;;;;;;;;;0.00;0.00;;;;;-143.39;100.00;63593.47;5016180;28;8810;-85
2021/12/28 05:56:29;;;;;;;;;0.50;0.00;;;;;-143.39;100.00;63593.47;5041272;28;8912;-85
2021/12/28 05:58:54;;;;;;;;;3.00;0.75;;;;;-143.39;100.00;63593.47;5034561;28;9239;-86
2021/12/28 06:01:20;;;;;;;;;6.25;0.50;;;;;-143.39;100.00;63593.47;5035393;28;8819;-85
2021/12/28 06:03:45;;;;;;;;;5.75;0.00;;;;;-143.39;100.00;63593.47;5037456;28;8833;-85
2021/12/28 06:06:11;;;;;;;;;0.00;0.00;;;;;-143.39;100.00;63593.47;5035168;28;8835;-86
2021/12/28 06:08:36;;;;;;;;;2.50;0.25;;;;;-143.39;100.00;63593.47;5029008;28;8814;-86
2021/12/28 06:11:03;;;;;;;;;4.00;0.00;;;;;-143.39;100.00;63593.47;5016134;28;8848;-85
2021/12/28 06:13:29;;;;;;;;;2.00;0.00;;;;;-143.39;100.00;63593.47;5027620;28;8896;-85
2021/12/28 06:15:54;;;;;;;;;2.25;1.00;;;;;-143.39;100.00;63593.47;5035862;28;8930;-85
2021/12/28 06:18:21;;;;;;;;;1.50;0.50;;;;;-143.39;100.00;63593.47;5034386;28;8835;-86
2021/12/28 06:20:46;;;;;;;;;0.00;0.00;;;;;-143.39;100.00;63593.47;5050924;28;8768;-86
2021/12/28 06:23:12;;;;;;;;;0.75;0.00;;;;;-143.39;100.00;63593.47;5035285;28;9562;-85
2021/12/28 06:25:38;;;;;;;;;5.25;0.00;;;;;-143.39;100.00;63593.47;5035539;28;8830;-85
2021/12/28 06:28:05;;;;;;;;;1.00;1.00;;;;;-143.39;100.00;63593.47;5033987;28;8835;-85
2021/12/28 06:30:34;;;;;;;;;1.00;0.25;;;;;-143.39;100.00;63593.47;5035202;28;8784;-85
2021/12/28 06:33:00;;;;;;;;;2.00;0.50;;;;;-143.39;100.00;63593.47;5035311;28;8831;-85
2021/12/28 06:35:26;;;;;;;;;2.25;0.00;;;;;-143.39;100.00;63593.47;5034919;28;8818;-86
2021/12/28 06:42:33;;;;;;;;;2.00;0.00;;;;;-143.39;100.00;63593.47;4690162;28;139556703;-85
2021/12/28 06:49:21;;;;;;;;;;;;;;;-143.39;100.00;63593.47;3;117049787;130552979;-86
2021/12/28 06:56:00;;;;;;;;;0.00;0.00;;;;;-143.39;100.00;63593.47;3;117062641;130554280;-85
2021/12/28 07:02:48;;;;;;;;;9.00;1.00;;;;;-143.39;100.00;63593.47;3;130561253;139556778;-85
2021/12/28 07:09:50;;;;;;;;;0.00;0.00;;;;;-143.39;100.00;63593.47;3;130553883;139566583;-85
2021/12/28 07:16:38;;;;;;;;;;;;;;;-143.39;100.00;63593.47;3;117047783;130553141;-85
2021/12/28 07:23:19;;;;;;;;;20.00;0.00;;;;;-143.39;100.00;63593.47;3;117054931;130548084;-84
2021/12/28 07:30:09;;;;;;;;;0.00;0.00;;;;;-143.39;100.00;63593.47;3;130556378;139554050;-85
2021/12/28 07:37:11;;;;;;;;;0.00;0.00;;;;;-143.39;100.00;63593.47;3;130554976;139566716;-85
2021/12/28 07:43:57;;;;;;;;;;;;;;;-143.39;100.00;63593.47;3;117048524;128485172;-85
2021/12/28 07:49:51;;;;;;;;;0.00;0.00;;;;;-143.39;100.00;63593.47;3;85405090;117443557;-85
2021/12/28 07:56:38;;;;;;;;;0.00;0.00;;;;;-143.39;100.00;63593.47;3;130434405;139556946;-84
2021/12/28 08:03:40;;;;;;;;;3.50;0.50;;;;;-143.39;100.00;63593.47;3;130555976;139566919;-85
2021/12/28 08:09:26;;;;;;;;;;;;;;;-143.39;100.00;63593.47;3;117050788;130554379;-86
2021/12/28 08:11:51;;;;;;;;;5.25;1.25;;;;;-143.39;100.00;63593.47;4996267;28;200818;-86
2021/12/28 08:14:18;;;;;;;;;3.75;1.50;;;;;-143.39;100.00;63593.47;5014742;28;65235;-86
2021/12/28 08:16:44;;;;;;;;;1.25;0.00;;;;;-143.39;100.00;63593.47;5032576;28;8832;-86
2021/12/28 08:19:10;;;;;;;;;1.25;1.00;;;;;-143.39;100.00;63593.47;5034874;28;8815;-86
2021/12/28 08:21:36;;;;;;;;;0.25;0.00;;;;;-143.39;100.00;63593.47;5022799;28;8810;-86
2021/12/28 08:24:01;;;;;;;;;2.00;1.00;;;;;-143.39;100.00;63593.47;5021113;28;8846;-86
2021/12/28 08:26:27;;;;;;;;;0.75;0.75;;;;;-143.39;100.00;63593.47;5029631;28;8908;-86
2021/12/28 08:28:52;;;;;;;;;1.50;1.00;;;;;-143.39;100.00;63593.47;5018343;28;8875;-86
2021/12/28 08:31:18;;;;;;;;;4.00;1.00;;;;;-143.39;100.00;63593.47;5025545;28;8819;-86
2021/12/28 08:33:43;;;;;;;;;0.00;0.00;;;;;-143.39;100.00;63593.47;5035817;28;8875;-86
2021/12/28 08:36:09;;;;;;;;;1.00;1.00;;;;;-143.39;100.00;63593.47;5027846;28;8852;-88
2021/12/28 08:38:44;;;;;;;;;4.25;1.00;;;;;-143.39;100.00;63593.47;5029568;28;8944;-84
2021/12/28 08:41:10;;;;;;;;;1.25;1.00;;;;;-143.39;100.00;63593.47;5027606;28;8820;-86
2021/12/28 08:43:37;;;;;;;;;1.00;0.75;;;;;-143.39;100.00;63593.47;5027758;28;8930;-84
2021/12/28 08:46:03;;;;;;;;;3.25;1.75;;;;;-143.39;100.00;63593.47;5022254;28;8887;-84
2021/12/28 08:48:28;;;;;;;;;4.00;1.00;;;;;-143.39;100.00;63593.47;5033424;28;8848;-85
2021/12/28 08:50:54;;;;;;;;;1.00;1.00;;;;;-143.39;100.00;63593.47;5027053;28;8898;-84
2021/12/28 08:53:19;;;;;;;;;3.00;1.00;;;;;-143.39;100.00;63593.47;5023104;28;8818;-84
2021/12/28 08:55:46;;;;;;;;;3.50;1.00;;;;;-143.39;100.00;63593.47;5028278;28;8919;-85
2021/12/28 08:58:14;;;;;;;;;2.00;2.00;;;;;-143.39;100.00;63593.47;5038275;28;8933;-85
2021/12/28 09:00:40;;;;;;;;;3.50;1.00;;;;;-143.39;100.00;63593.47;5023826;28;8814;-85
2021/12/28 09:03:05;;;;;;;;;1.75;0.25;;;;;-143.39;100.00;63593.47;5033860;28;8834;-85
2021/12/28 09:05:31;;;;;;;;;0.50;0.50;;;;;-143.39;100.00;63593.47;5046295;28;8842;-85
2021/12/28 09:07:57;;;;;;;;;1.00;1.00;;;;;-143.39;100.00;63593.47;5030941;28;9031;-86
2021/12/28 09:10:27;;;;;;;;;1.25;1.00;;;;;-143.39;100.00;63593.47;5031846;28;8818;-85
2021/12/28 09:12:58;;;;;;;;;0.00;0.00;;;;;-143.39;100.00;63593.47;5024613;28;9803;-85
2021/12/28 09:15:24;;;;;;;;;0.00;0.00;;;;;-143.39;100.00;63593.47;5032718;28;8775;-86
2021/12/28 09:17:53;;;;;;;;;1.00;0.75;;;;;-143.39;100.00;63593.47;5020743;28;8843;-86
2021/12/28 09:20:22;;;;;;;;;4.25;0.75;;;;;-143.39;100.00;63593.47;5023816;28;11162;-86
2021/12/28 09:22:48;;;;;;;;;0.50;0.50;;;;;-143.39;100.00;63593.47;5020955;28;8740;-86
2021/12/28 09:25:16;;;;;;;;;3.75;0.75;;;;;-143.39;100.00;63593.47;5024474;28;8866;-86
2021/12/28 09:27:43;;;;;;;;;2.75;0.75;;;;;-143.39;100.00;63593.47;5028523;28;8848;-86
2021/12/28 09:30:12;;;;;;;;;1.75;1.75;;;;;-143.39;100.00;63593.47;5026095;28;8755;-86
2021/12/28 09:32:39;;;;;;;;;3.50;2.00;;;;;-143.39;100.00;63593.47;5029980;28;8812;-85
2021/12/28 09:35:08;;;;;;;;;3.25;1.00;;;;;-143.39;100.00;63593.47;5024985;28;8756;-86
2021/12/28 09:37:34;;;;;;;;;4.25;2.00;;;;;-143.39;100.00;63593.47;5018287;28;8818;-85
2021/12/28 09:40:02;;;;;;;;;0.50;0.50;;;;;-143.39;100.00;63593.47;5014782;28;8822;-86
2021/12/28 09:42:28;;;;;;;;;3.75;1.00;;;;;-143.39;100.00;63593.47;5025693;28;8849;-86
2021/12/28 09:44:54;;;;;;;;;9.25;3.50;;;;;-143.39;100.00;63593.47;5023910;28;8783;-85
2021/12/28 09:47:20;;;;;;;;;4.00;1.25;;;;;-143.39;100.00;63593.47;5024822;28;8803;-86
2021/12/28 09:49:46;;;;;;;;;3.75;0.50;;;;;-143.39;100.00;63593.47;5018977;28;8834;-86
2021/12/28 09:52:14;;;;;;;;;2.50;2.00;;;;;-143.39;100.00;63593.47;5013968;28;8794;-86
2021/12/28 09:54:42;;;;;;;;;3.00;1.00;;;;;-143.39;100.00;63593.47;5013667;28;8884;-86
2021/12/28 09:57:15;;;;;;;;;6.75;2.00;;;;;-143.39;100.00;63593.47;5019574;28;8804;-86
2021/12/28 09:59:40;;;;;;;;;8.50;3.00;;;;;-143.39;100.00;63593.47;5016149;28;8859;-86
2021/12/28 10:02:08;;;;;;;;;2.25;1.00;;;;;-143.39;100.00;63593.47;5015519;28;8791;-86
2021/12/28 10:04:35;;;;;;;;;4.75;3.00;;;;;-143.39;100.00;63593.47;5017188;28;8806;-85
2021/12/28 10:07:22;;;;;;;;;5.00;3.00;;;;;-143.39;100.00;63593.47;5019409;28;8798;-86
2021/12/28 10:09:48;;;;;;;;;7.50;2.50;;;;;-143.39;100.00;63593.47;5015594;28;8830;-85
2021/12/28 10:12:29;;;;;;;;;3.75;2.00;;;;;-143.39;100.00;63593.47;5015032;28;8822;-85
2021/12/28 10:15:00;;;;;;;;;6.50;3.00;;;;;-143.39;100.00;63593.47;5029310;28;8815;-86
2021/12/28 10:17:27;;;;;;;;;7.00;2.50;;;;;-143.39;100.00;63593.47;5018580;28;8966;-85
2021/12/28 10:19:53;;;;;;;;;4.25;3.75;;;;;-143.39;100.00;63593.47;5023933;28;8822;-85
2021/12/28 10:22:33;;;;;;;;;1.75;1.75;;;;;-143.39;100.00;63593.47;5016334;28;8815;-85
2021/12/28 10:25:12;;;;;;;;;5.00;2.00;;;;;-143.39;100.00;63593.47;5026959;28;8791;-86
2021/12/28 10:27:46;;;;;;;;;8.50;2.00;;;;;-143.39;100.00;63593.47;5027019;28;8974;-85
2021/12/28 10:30:12;;;;;;;;;5.25;1.75;;;;;-143.39;100.00;63593.47;5031994;28;8809;-85
2021/12/28 10:32:39;;;;;;;;;3.50;2.00;;;;;-143.39;100.00;63593.47;5031715;28;8902;-85
2021/12/28 10:35:16;;;;;;;;;3.25;3.00;;;;;-143.39;100.00;63593.47;5029023;28;8739;-86
2021/12/28 10:37:49;;;;;;;;;9.00;2.25;;;;;-143.39;100.00;63593.47;5033332;28;8834;-87
2021/12/28 10:40:32;;;;;;;;;6.25;2.50;;;;;-143.39;100.00;63593.47;5043371;28;8818;-85
2021/12/28 10:43:13;;;;;;;;;7.75;2.75;;;;;-143.39;100.00;63593.47;5026700;28;8811;-87
2021/12/28 10:46:01;;;;;;;;;;;;;;;;;;;;;
2021/12/28 10:52:33;;;;;;;;;9.25;3.00;;;;;-143.39;100.00;63593.47;5018748;28;8810;-87
2021/12/28 10:55:22;;;;;;;;;6.50;3.75;;;;;-143.39;100.00;63593.47;5045326;28;8800;-85
2021/12/28 10:57:49;;;;;;;;;8.00;2.25;;;;;-143.39;100.00;63593.47;5026109;28;8784;-87
2021/12/28 11:00:51;;;;;;;;;9.75;3.00;;;;;-143.39;100.00;63593.47;5028677;28;8814;-85
2021/12/28 11:03:32;;;;;;;;;8.75;4.75;;;;;-143.39;100.00;63593.47;4997819;28;9798;-86
2021/12/28 11:05:59;;;;;;;;;9.25;4.00;;;;;-143.39;100.00;63593.47;5023297;28;8763;-86
2021/12/28 11:08:27;;;;;;;;;8.50;3.75;;;;;-143.39;100.00;63593.47;5026784;28;8805;-85
2021/12/28 11:10:56;;;;;;;;;11.25;2.00;;;;;-143.39;100.00;63593.47;5024438;28;8778;-88
2021/12/28 11:13:25;;;;;;;;;3.75;3.00;;;;;-143.39;100.00;63593.47;5025603;28;8861;-88
2021/12/28 11:15:51;;;;;;;;;11.75;4.25;;;;;-143.39;100.00;63593.47;5026481;28;8827;-89
2021/12/28 11:18:19;;;;;;;;;9.50;2.75;;;;;-143.39;100.00;63593.47;5028379;28;8841;-90
2021/12/28 11:20:45;;;;;;;;;4.25;2.75;;;;;-143.39;100.00;63593.47;5033007;28;8775;-88
2021/12/28 11:23:18;;;;;;;;;6.00;3.75;;;;;-143.39;100.00;63593.47;5023246;28;9320;-89
2021/12/28 11:25:44;;;;;;;;;5.25;2.25;;;;;-143.39;100.00;63593.47;5049688;28;8795;-88
2021/12/28 11:28:19;;;;;;;;;6.50;5.00;;;;;-143.39;100.00;63593.47;5033994;28;8819;-88
2021/12/28 11:31:08;;;;;;;;;6.50;4.00;;;;;-143.39;100.00;63593.47;5031533;28;8786;-88
2021/12/28 11:33:46;;;;;;;;;11.50;4.00;;;;;-143.39;100.00;63593.47;5035400;28;8925;-88
2021/12/28 11:36:13;;;;;;;;;8.25;5.00;;;;;-143.39;100.00;63593.47;5031977;28;8829;-89
2021/12/28 11:38:39;;;;;;;;;6.75;2.00;;;;;-143.39;100.00;63593.47;5025351;28;8830;-88
2021/12/28 11:41:05;;;;;;;;;4.00;2.00;;;;;-143.39;100.00;63593.47;5026140;28;8823;-88
2021/12/28 11:43:39;;;;;;;;;4.75;3.50;;;;;-143.39;100.00;63593.47;5027281;28;8792;-88
2021/12/28 11:46:05;;;;;;;;;12.50;4.00;;;;;-143.39;100.00;63593.47;5027622;28;8814;-88
2021/12/28 11:48:35;;;;;;;;;4.50;3.00;;;;;-143.39;100.00;63593.47;5029773;28;8822;-88
2021/12/28 11:51:01;;;;;;;;;3.25;3.00;;;;;-143.39;100.00;63593.47;5023714;28;8828;-87
2021/12/28 11:53:28;;;;;;;;;9.00;4.00;;;;;-143.39;100.00;63593.47;5019135;28;8810;-88
2021/12/28 11:55:58;;;;;;;;;9.00;3.00;;;;;-143.39;100.00;63593.47;5020096;28;8894;-88
2021/12/28 11:58:49;;;;;;;;;5.00;1.00;;;;;-143.39;100.00;63593.47;5023214;28;8920;-88
2021/12/28 12:01:36;;;;;;;;;7.00;2.50;;;;;-143.39;100.00;63593.47;5027235;28;8806;-87
2021/12/28 12:04:01;;;;;;;;;6.00;3.25;;;;;-143.39;100.00;63593.47;5030937;28;8938;-88
2021/12/28 12:07:16;;;;;;;;;5.50;3.75;;;;;-143.39;100.00;63593.47;5031868;28;8871;-88
2021/12/28 12:09:50;;;;;;;;;5.25;3.00;;;;;-143.39;100.00;63593.47;5031182;28;8803;-88
2021/12/28 12:12:17;;;;;;;;;6.75;3.50;;;;;-143.39;100.00;63593.47;5031927;28;8919;-88
2021/12/28 12:14:52;;;;;;;;;7.50;4.25;;;;;-143.39;100.00;63593.47;5023875;28;8788;-88
2021/12/28 12:17:43;;;;;;;;;9.75;6.25;;;;;-143.39;100.00;63593.47;5023045;28;8834;-88
2021/12/28 12:20:23;;;;;;;;;3.50;2.25;;;;;-143.39;100.00;63593.47;5024688;28;8815;-89
2021/12/28 12:22:52;;;;;;;;;10.25;5.00;;;;;-143.39;100.00;63593.47;5029779;28;8799;-89
2021/12/28 12:25:48;;;;;;;;;5.75;3.00;;;;;-143.39;100.00;63593.47;5021347;28;8792;-88
2021/12/28 12:28:14;;;;;;;;;9.50;4.50;;;;;-143.39;100.00;63593.47;5002292;28;9698;-87
2021/12/28 12:30:48;;;;;;;;;6.00;3.25;;;;;-143.39;100.00;63593.47;5032933;28;8881;-89
2021/12/28 12:33:16;;;;;;;;;3.50;3.00;;;;;-143.39;100.00;63593.47;5017907;28;8734;-88
2021/12/28 12:35:59;;;;;;;;;13.75;2.75;;;;;-143.39;100.00;63593.47;5041521;28;8814;-88
2021/12/28 12:38:25;;;;;;;;;5.25;2.00;;;;;-143.39;100.00;63593.47;5025515;28;8822;-90
2021/12/28 12:40:58;;;;;;;;;6.25;3.25;;;;;-143.39;100.00;63593.47;5026853;28;8834;-90
2021/12/28 12:43:26;;;;;;;;;8.25;2.00;;;;;-143.39;100.00;63593.47;5027593;28;8798;-88
2021/12/28 12:46:00;;;;;;;;;5.00;2.25;;;;;-143.39;100.00;63593.47;5025697;28;8821;-86
2021/12/28 12:48:38;;;;;;;;;3.75;2.50;;;;;-143.39;100.00;63593.47;5029649;28;8798;-84
2021/12/28 12:51:29;;;;;;;;;3.75;3.00;;;;;-143.39;100.00;63593.47;5020015;28;8802;-84
2021/12/28 12:54:01;;;;;;;;;6.00;3.00;;;;;-143.39;100.00;63593.47;5036298;28;8784;-84
2021/12/28 12:56:37;;;;;;;;;4.00;3.00;;;;;-143.39;100.00;63593.47;5030223;28;8803;-85
2021/12/28 12:59:22;;;;;;;;;5.00;2.00;;;;;-143.39;100.00;63593.47;5033595;28;8808;-85
2021/12/28 13:01:48;;;;;;;;;6.50;2.00;;;;;-143.39;100.00;63593.47;5033410;28;8791;-85
2021/12/28 13:04:31;;;;;;;;;3.25;1.25;;;;;-143.39;100.00;63593.47;5036055;28;8922;-85
2021/12/28 13:07:01;;;;;;;;;4.75;3.00;;;;;-143.39;100.00;63593.47;5033290;28;8833;-85
2021/12/28 13:09:37;;;;;;;;;6.50;2.00;;;;;-143.39;100.00;63593.47;5034552;28;8850;-84
2021/12/28 13:12:13;;;;;;;;;6.75;2.25;;;;;-143.39;100.00;63593.47;5040105;28;8904;-83
2021/12/28 13:14:42;;;;;;;;;9.00;3.75;;;;;-143.39;100.00;63593.47;5025798;28;8941;-85
2021/12/28 13:17:24;;;;;;;;;;;;;;;;;;;;;
2021/12/28 13:20:06;;;;;;;;;7.00;3.00;;;;;-143.39;100.00;63593.47;5032527;28;36627;-85
2021/12/28 13:22:39;;;;;;;;;7.75;3.25;;;;;-143.39;100.00;63593.47;5032604;28;8884;-84
2021/12/28 13:25:09;;;;;;;;;8.25;3.00;;;;;-143.39;100.00;63593.47;5031646;28;8833;-85
2021/12/28 13:27:44;;;;;;;;;8.00;3.00;;;;;-143.39;100.00;63593.47;5031774;28;8739;-85
2021/12/28 13:30:12;;;;;;;;;6.50;4.00;;;;;-143.39;100.00;63593.47;5035912;28;8756;-85
2021/12/28 13:32:42;;;;;;;;;8.25;3.00;;;;;-143.39;100.00;63593.47;5027423;28;8906;-86
2021/12/28 13:35:21;;;;;;;;;4.25;1.25;;;;;-143.39;100.00;63593.47;5034515;28;8820;-85
2021/12/28 13:37:50;;;;;;;;;13.00;4.00;;;;;-143.39;100.00;63593.47;5036253;28;8783;-85
2021/12/28 13:40:34;;;;;;;;;3.50;2.25;;;;;-143.39;100.00;63593.47;5051793;28;8830;-85
2021/12/28 13:43:00;;;;;;;;;7.50;2.75;;;;;-143.39;100.00;63593.47;5036806;28;8803;-85
2021/12/28 13:45:31;;;;;;;;;9.75;2.00;;;;;-143.39;100.00;63593.47;5030240;28;8846;-85
2021/12/28 13:47:59;;;;;;;;;2.00;0.75;;;;;-143.39;100.00;63593.47;5028562;28;8816;-85
2021/12/28 13:50:25;;;;;;;;;4.50;2.50;;;;;-143.39;100.00;63593.47;5027489;28;8814;-85
2021/12/28 13:52:58;;;;;;;;;4.25;2.00;;;;;-143.39;100.00;63593.47;5016855;28;8844;-85
2021/12/28 13:55:31;;;;;;;;;7.50;1.00;;;;;-143.39;100.00;63593.47;5017663;28;8826;-85
2021/12/28 13:57:58;;;;;;;;;5.50;1.00;;;;;-143.39;100.00;63593.47;5036640;28;8811;-85
2021/12/28 14:00:31;;;;;;;;;4.25;3.00;;;;;-143.39;100.00;63593.47;5048051;28;8822;-85
2021/12/28 14:03:06;;;;;;;;;8.00;2.75;;;;;-143.39;100.00;63593.47;5050876;28;8806;-85
2021/12/28 14:05:34;;;;;;;;;1.50;0.50;;;;;-143.39;100.00;63593.47;5043320;28;8799;-85
2021/12/28 14:08:01;;;;;;;;;6.75;1.00;;;;;-143.39;100.00;63593.47;5034734;28;9669;-85
2021/12/28 14:10:29;;;;;;;;;3.25;1.25;;;;;-143.39;100.00;63593.47;5034978;28;8912;-85
2021/12/28 14:13:20;;;;;;;;;1.50;1.00;;;;;-143.39;100.00;63593.47;5038603;28;8796;-85
2021/12/28 14:15:51;;;;;;;;;5.00;2.00;;;;;-143.39;100.00;63593.47;5039885;28;8759;-85
2021/12/28 14:18:25;;;;;;;;;4.75;2.00;;;;;-143.39;100.00;63593.47;5028517;28;9784;-85
2021/12/28 14:20:53;;;;;;;;;4.00;1.00;;;;;-143.39;100.00;63593.47;5038569;28;8822;-84
2021/12/28 14:23:37;;;;;;;;;7.50;3.50;;;;;-143.39;100.00;63593.47;5038274;28;8810;-86
2021/12/28 14:26:25;;;;;;;;;3.75;0.00;;;;;-143.39;100.00;63593.47;5019482;28;8810;-86
2021/12/28 14:29:01;;;;;;;;;2.75;1.00;;;;;-143.39;100.00;63593.47;5025520;28;9808;-85
2021/12/28 14:31:53;;;;;;;;;1.75;1.50;;;;;-143.39;100.00;63593.47;5033556;28;8828;-85
2021/12/28 14:34:38;;;;;;;;;3.75;1.00;;;;;-143.39;100.00;63593.47;5036268;28;8807;-86
2021/12/28 14:37:14;;;;;;;;;1.50;1.50;;;;;-143.39;100.00;63593.47;5028568;28;8910;-86
2021/12/28 14:40:12;;;;;;;;;5.75;2.00;;;;;-143.39;100.00;63593.47;5027030;28;8941;-84
2021/12/28 14:42:40;;;;;;;;;7.00;2.50;;;;;-143.39;100.00;63593.47;5030350;28;8927;-85
2021/12/28 14:45:12;;;;;;;;;4.25;2.25;;;;;-143.39;100.00;63593.47;5019048;28;8786;-84
2021/12/28 14:47:40;;;;;;;;;2.25;1.25;;;;;-143.39;100.00;63593.47;5019084;28;9874;-84
2021/12/28 14:50:24;;;;;;;;;5.75;2.75;;;;;-143.39;100.00;63593.47;5037100;28;8942;-85
2021/12/28 14:52:52;;;;;;;;;5.75;1.00;;;;;-143.39;100.00;63593.47;5030330;28;8853;-85
2021/12/28 14:55:37;;;;;;;;;2.25;2.00;;;;;-143.39;100.00;63593.47;5018679;28;8845;-84
2021/12/28 14:58:11;;;;;;;;;3.75;3.25;;;;;-143.39;100.00;63593.47;5031350;28;8791;-86
2021/12/28 15:00:41;;;;;;;;;4.25;2.00;;;;;-143.39;100.00;63593.47;5037523;28;8747;-86
2021/12/28 15:03:13;;;;;;;;;6.25;2.00;;;;;-143.39;100.00;63593.47;5032346;28;8788;-86
2021/12/28 15:05:43;;;;;;;;;4.00;1.50;;;;;-143.39;100.00;63593.47;5036137;28;8791;-85
2021/12/28 15:08:17;;;;;;;;;8.75;2.00;;;;;-143.39;100.00;63593.47;5034705;28;9607;-85
2021/12/28 15:10:46;;;;;;;;;2.00;0.00;;;;;-143.39;100.00;63593.47;5036398;28;8811;-84
2021/12/28 15:13:18;;;;;;;;;5.00;3.00;;;;;-143.39;100.00;63593.47;5036419;28;8812;-86
2021/12/28 15:15:44;;;;;;;;;7.00;3.00;;;;;-143.39;100.00;63593.47;5036380;28;8819;-85
2021/12/28 15:18:11;;;;;;;;;8.25;4.75;;;;;-143.39;100.00;63593.47;5034287;28;8834;-85
2021/12/28 15:20:38;;;;;;;;;5.00;2.50;;;;;-143.39;100.00;63593.47;5035968;28;8752;-85
2021/12/28 15:23:04;;;;;;;;;8.50;4.75;;;;;-143.39;100.00;63593.47;5027190;28;8764;-86
2021/12/28 15:25:31;;;;;;;;;4.25;2.75;;;;;-143.39;100.00;63593.47;5031616;28;8811;-86
2021/12/28 15:27:58;;;;;;;;;6.25;3.50;;;;;-143.39;100.00;63593.47;5047808;28;8812;-86
2021/12/28 15:30:28;;;;;;;;;5.00;2.00;;;;;-143.39;100.00;63593.47;5033453;28;8787;-85